Terminal Aerodrome Forecast
Issued by NWS

Home | Current Version | Previous Version | Text Only | Print | Product List | Glossary On
Versions: 1 2 3 4 5 6 7 8 9 10 11 12 13 14 15
000
FTAK31 PAJN 251100
TAFAGY
TAF
PAGY 251132Z 2512/2612 20006KT P6SM VCSH SCT014 OVC070
      TEMPO 2512/2516 20012G20KT -SHRA BKN014 OVC030
     FM251700 21007KT P6SM -RA SCT015 OVC035
     FM252200 20013KT P6SM VCSH SCT030 OVC040
     FM260400 21005KT P6SM -RA SCT020 OVC030
      AMD LTD TO CLD VIS AND WIND=

USA.gov is the U.S. government's official web portal to all federal, state and local government web resources and services.